Time;durP1;ratioP1;P1;durP2;ratioP2;P2;SDS_P1;SDS_P2;PMS_P1;PMS_P2;Temp;Humidity;BMP_temperature;BMP_pressure;BME280_temperature;BME280_humidity;BME280_pressure;Samples;Min_cycle;Max_cycle;Signal;HPM_P1;HPM_P2
2022/03/15 00:00:22;;;;;;;5.45;3.55;;;23.80;29.90;;;;;;5022693;28;20033;-49
2022/03/15 00:02:49;;;;;;;4.63;3.42;;;23.80;30.00;;;;;;5030488;28;20075;-50
2022/03/15 00:05:19;;;;;;;4.25;3.33;;;23.80;30.00;;;;;;5044554;28;20107;-49
2022/03/15 00:07:45;;;;;;;5.10;3.42;;;23.70;29.90;;;;;;5044750;28;20037;-50
2022/03/15 00:10:12;;;;;;;5.10;3.58;;;23.70;29.90;;;;;;5044908;28;20075;-48
2022/03/15 00:12:39;;;;;;;4.90;3.60;;;23.70;30.00;;;;;;5043763;28;20621;-49
2022/03/15 00:15:08;;;;;;;4.88;3.25;;;23.70;29.90;;;;;;5044744;28;20370;-50
2022/03/15 00:17:37;;;;;;;4.60;3.40;;;23.70;29.90;;;;;;5035686;28;20048;-49
2022/03/15 00:20:05;;;;;;;4.78;3.47;;;23.70;29.90;;;;;;5024716;28;20038;-49
2022/03/15 00:22:37;;;;;;;4.68;3.55;;;23.70;29.80;;;;;;5023941;28;20060;-49
2022/03/15 00:25:08;;;;;;;4.63;3.42;;;23.70;29.80;;;;;;5024963;28;20029;-49
2022/03/15 00:27:35;;;;;;;4.45;3.30;;;23.60;29.70;;;;;;5024975;28;20037;-48
2022/03/15 00:30:04;;;;;;;4.00;2.88;;;23.60;29.80;;;;;;5024949;28;20113;-50
2022/03/15 00:32:30;;;;;;;4.47;3.20;;;23.60;29.80;;;;;;5032470;28;20564;-49
2022/03/15 00:34:56;;;;;;;4.78;3.20;;;23.60;29.80;;;;;;5045359;28;20028;-49
2022/03/15 00:37:21;;;;;;;4.88;3.40;;;23.60;29.80;;;;;;5044712;28;20025;-50
2022/03/15 00:39:48;;;;;;;4.70;3.28;;;23.60;29.70;;;;;;5042960;28;20037;-50
2022/03/15 00:42:14;;;;;;;4.47;2.92;;;23.60;29.80;;;;;;5044903;28;20037;-48
2022/03/15 00:44:40;;;;;;;5.65;3.35;;;23.60;29.80;;;;;;5044550;28;20274;-49
2022/03/15 00:47:06;;;;;;;4.97;3.50;;;23.60;29.70;;;;;;5039294;28;20026;-48
2022/03/15 00:49:32;;;;;;;4.75;3.00;;;23.60;29.80;;;;;;5024472;28;20032;-49
2022/03/15 00:51:58;;;;;;;4.80;3.33;;;23.50;29.70;;;;;;5024739;28;20036;-49
2022/03/15 00:54:24;;;;;;;4.70;3.42;;;23.50;29.70;;;;;;5024863;28;20021;-50
2022/03/15 00:56:53;;;;;;;4.97;3.45;;;23.50;29.70;;;;;;5023368;28;20029;-49
2022/03/15 00:59:19;;;;;;;4.78;3.50;;;23.50;29.70;;;;;;5023969;28;20086;-48
2022/03/15 01:01:46;;;;;;;4.78;2.70;;;23.50;29.70;;;;;;5025329;28;20045;-49
2022/03/15 01:04:12;;;;;;;4.75;3.20;;;23.50;29.70;;;;;;5027556;28;20040;-49
2022/03/15 01:06:39;;;;;;;4.32;3.47;;;23.50;29.70;;;;;;5024497;28;20080;-50
2022/03/15 01:09:06;;;;;;;5.85;3.15;;;23.50;29.70;;;;;;5024359;28;20576;-49
2022/03/15 01:11:32;;;;;;;4.57;3.15;;;23.50;29.70;;;;;;5024453;28;20033;-49
2022/03/15 01:13:58;;;;;;;5.40;3.70;;;23.50;29.70;;;;;;5024108;28;20029;-49
2022/03/15 01:16:24;;;;;;;4.70;3.38;;;23.40;29.60;;;;;;5030870;28;20069;-49
2022/03/15 01:18:50;;;;;;;4.60;3.45;;;23.50;29.70;;;;;;5025188;28;20680;-48
2022/03/15 01:21:17;;;;;;;4.75;3.28;;;23.40;29.70;;;;;;5024114;28;20038;-49
2022/03/15 01:23:43;;;;;;;4.00;2.83;;;23.40;29.70;;;;;;5024387;28;20029;-49
2022/03/15 01:26:10;;;;;;;4.22;2.88;;;23.40;29.60;;;;;;5024204;28;20040;-49
2022/03/15 01:28:36;;;;;;;4.32;2.88;;;23.40;29.60;;;;;;5026407;28;20030;-48
2022/03/15 01:31:02;;;;;;;4.40;3.03;;;23.40;29.60;;;;;;5026714;28;20022;-49
2022/03/15 01:33:27;;;;;;;4.60;3.22;;;23.40;29.60;;;;;;5041435;28;20032;-49
2022/03/15 01:35:54;;;;;;;4.88;3.78;;;23.40;29.60;;;;;;5048313;28;20032;-49
2022/03/15 01:38:20;;;;;;;4.18;2.92;;;23.40;29.60;;;;;;5047870;28;20029;-48
2022/03/15 01:40:46;;;;;;;4.05;3.05;;;23.40;29.50;;;;;;5047870;28;20029;-50
2022/03/15 01:43:12;;;;;;;4.28;3.17;;;23.40;29.60;;;;;;5047446;28;20050;-50
2022/03/15 01:45:40;;;;;;;4.35;3.03;;;23.30;29.60;;;;;;5047517;28;20079;-49
2022/03/15 01:48:07;;;;;;;3.88;2.75;;;23.30;29.60;;;;;;5046830;28;20029;-48
2022/03/15 01:50:34;;;;;;;4.47;3.03;;;23.30;29.60;;;;;;5047313;28;20480;-49
2022/03/15 01:53:00;;;;;;;3.95;2.88;;;23.30;29.60;;;;;;5047030;28;20041;-49
2022/03/15 01:55:26;;;;;;;4.22;3.10;;;23.30;29.60;;;;;;5047711;28;20048;-48
2022/03/15 01:57:52;;;;;;;4.20;2.95;;;23.30;29.60;;;;;;5047318;28;20029;-49
2022/03/15 02:00:19;;;;;;;4.13;2.90;;;23.30;29.60;;;;;;5047653;28;20039;-48
2022/03/15 02:02:45;;;;;;;4.30;2.92;;;23.30;29.70;;;;;;5027053;28;20072;-49
2022/03/15 02:05:11;;;;;;;4.82;3.00;;;23.30;29.70;;;;;;5027792;28;20026;-49
2022/03/15 02:07:38;;;;;;;3.72;2.72;;;23.30;29.60;;;;;;5045124;28;20041;-49
2022/03/15 02:10:06;;;;;;;4.65;3.05;;;23.20;29.60;;;;;;5046534;28;20468;-49
2022/03/15 02:12:38;;;;;;;4.53;3.25;;;23.20;29.60;;;;;;5047301;28;20564;-49
2022/03/15 02:15:08;;;;;;;;;;;23.20;29.60;;;;;;5047583;28;20100;-48
2022/03/15 02:17:34;;;;;;;4.38;2.80;;;23.20;29.60;;;;;;5040172;28;19915;-49
2022/03/15 02:20:05;;;;;;;3.83;2.75;;;23.20;29.50;;;;;;5027488;28;20036;-49
2022/03/15 02:22:31;;;;;;;4.07;2.80;;;23.20;29.60;;;;;;5026948;28;20113;-49
2022/03/15 02:24:56;;;;;;;4.18;2.67;;;23.20;29.60;;;;;;5026486;28;20220;-47
2022/03/15 02:27:24;;;;;;;3.83;2.65;;;23.20;29.60;;;;;;5025851;28;20030;-48
2022/03/15 02:29:50;;;;;;;3.97;2.60;;;23.20;29.50;;;;;;5026075;28;20028;-48
2022/03/15 02:32:16;;;;;;;4.13;3.20;;;23.20;29.50;;;;;;5029950;28;20123;-49
2022/03/15 02:34:42;;;;;;;4.22;3.00;;;23.20;29.50;;;;;;5045393;28;20095;-49
2022/03/15 02:37:08;;;;;;;4.40;3.08;;;23.20;29.60;;;;;;5045535;28;20038;-49
2022/03/15 02:39:35;;;;;;;4.78;3.30;;;23.10;29.60;;;;;;5046235;28;20017;-48
2022/03/15 02:42:01;;;;;;;4.45;3.25;;;23.10;29.60;;;;;;5045723;28;20652;-50
2022/03/15 02:44:26;;;;;;;4.68;2.78;;;23.10;29.60;;;;;;5045724;28;20039;-49
2022/03/15 02:46:52;;;;;;;4.60;3.42;;;23.10;29.60;;;;;;5045620;28;20029;-49
2022/03/15 02:49:18;;;;;;;4.45;3.35;;;23.10;29.60;;;;;;5026039;28;20024;-49
2022/03/15 02:51:44;;;;;;;4.40;3.30;;;23.10;29.60;;;;;;5025119;28;20021;-49
2022/03/15 02:54:11;;;;;;;4.10;2.75;;;23.10;29.70;;;;;;5026539;28;20036;-49
2022/03/15 02:56:42;;;;;;;4.40;3.30;;;23.10;29.60;;;;;;5026140;28;20030;-48
2022/03/15 02:59:15;;;;;;;4.03;2.88;;;23.10;29.60;;;;;;5026145;28;20068;-49
2022/03/15 03:01:44;;;;;;;4.22;3.03;;;23.10;29.60;;;;;;5025963;28;20037;-50
2022/03/15 03:04:11;;;;;;;4.38;2.80;;;23.10;29.60;;;;;;5027868;28;20038;-49
2022/03/15 03:06:37;;;;;;;5.53;3.55;;;23.10;29.60;;;;;;5026597;28;20034;-48
2022/03/15 03:09:04;;;;;;;5.68;3.15;;;23.10;29.50;;;;;;5026263;28;20428;-49
2022/03/15 03:11:30;;;;;;;4.68;3.33;;;23.00;29.40;;;;;;5024589;28;20026;-48
2022/03/15 03:13:57;;;;;;;4.30;3.10;;;23.00;29.50;;;;;;5025911;28;20079;-50
2022/03/15 03:16:24;;;;;;;4.15;3.15;;;23.00;29.40;;;;;;5025149;28;20037;-50
2022/03/15 03:18:52;;;;;;;4.30;3.05;;;23.00;29.40;;;;;;5040286;28;20040;-50
2022/03/15 03:21:18;;;;;;;5.18;2.88;;;23.00;29.50;;;;;;5046175;28;20029;-49
2022/03/15 03:23:44;;;;;;;4.13;2.63;;;23.00;29.50;;;;;;5044805;28;20043;-49
2022/03/15 03:26:09;;;;;;;4.53;3.25;;;23.00;29.50;;;;;;5045683;28;20111;-49
2022/03/15 03:28:39;;;;;;;4.15;2.95;;;23.00;29.40;;;;;;5045585;28;20025;-49
2022/03/15 03:31:09;;;;;;;3.90;2.83;;;23.00;29.40;;;;;;5045805;28;20096;-49
2022/03/15 03:33:36;;;;;;;6.35;3.15;;;23.00;29.40;;;;;;5033356;28;20053;-49
2022/03/15 03:36:02;;;;;;;5.10;2.92;;;23.00;29.50;;;;;;5025913;28;20758;-49
2022/03/15 03:38:29;;;;;;;4.55;3.40;;;23.00;29.50;;;;;;5026139;28;20026;-49
2022/03/15 03:40:55;;;;;;;4.88;3.15;;;23.00;29.40;;;;;;5025618;28;20048;-51
2022/03/15 03:43:21;;;;;;;4.30;2.92;;;22.90;29.50;;;;;;5025701;28;20052;-49
2022/03/15 03:45:46;;;;;;;4.35;3.10;;;23.00;29.40;;;;;;5036887;28;20033;-51
2022/03/15 03:48:12;;;;;;;4.60;3.00;;;22.90;29.40;;;;;;5035181;28;20029;-49
2022/03/15 03:50:40;;;;;;;4.65;3.03;;;22.90;29.40;;;;;;5023488;28;20057;-49
2022/03/15 03:53:06;;;;;;;4.75;3.20;;;22.90;29.40;;;;;;5025286;28;20068;-50
2022/03/15 03:55:32;;;;;;;4.40;3.00;;;22.90;29.40;;;;;;5025623;28;20030;-49
2022/03/15 03:57:58;;;;;;;4.07;3.03;;;22.90;29.40;;;;;;5025496;28;20101;-49
2022/03/15 04:00:24;;;;;;;5.03;3.60;;;22.90;29.40;;;;;;5025495;28;20450;-49
2022/03/15 04:02:52;;;;;;;4.30;3.10;;;22.90;29.40;;;;;;5025459;28;20104;-49
2022/03/15 04:05:18;;;;;;;5.55;3.50;;;22.90;29.40;;;;;;5025204;28;20025;-49
2022/03/15 04:07:44;;;;;;;3.88;2.88;;;22.80;29.40;;;;;;5025077;28;20034;-50
2022/03/15 04:10:10;;;;;;;3.83;2.58;;;22.90;29.50;;;;;;5024436;28;20052;-50
2022/03/15 04:12:36;;;;;;;5.28;3.13;;;22.90;29.40;;;;;;5025329;28;20617;-50
2022/03/15 04:15:06;;;;;;;4.45;3.15;;;22.80;29.40;;;;;;5025337;28;20026;-49
2022/03/15 04:17:32;;;;;;;3.85;2.70;;;22.80;29.40;;;;;;5024814;28;20037;-51
2022/03/15 04:19:58;;;;;;;4.60;3.60;;;22.90;29.50;;;;;;5025038;28;20029;-49
2022/03/15 04:22:24;;;;;;;4.65;3.25;;;22.90;29.50;;;;;;5024417;28;20036;-50
2022/03/15 04:24:50;;;;;;;4.63;3.22;;;22.80;29.40;;;;;;5025299;28;20037;-49
2022/03/15 04:27:16;;;;;;;4.82;3.10;;;22.80;29.40;;;;;;5024505;28;20112;-49
2022/03/15 04:29:42;;;;;;;4.90;3.40;;;22.80;29.40;;;;;;5025067;28;20030;-50
2022/03/15 04:32:09;;;;;;;5.65;2.85;;;22.80;29.40;;;;;;5024871;28;20060;-49
2022/03/15 04:34:35;;;;;;;4.40;3.25;;;22.80;29.40;;;;;;5024821;28;20037;-49
2022/03/15 04:37:01;;;;;;;5.18;3.40;;;22.80;29.30;;;;;;5024862;28;20517;-49
2022/03/15 04:39:26;;;;;;;4.68;3.33;;;22.80;29.30;;;;;;5025089;28;20037;-49
2022/03/15 04:41:52;;;;;;;4.45;3.25;;;22.80;29.30;;;;;;5025346;28;20029;-48
2022/03/15 04:44:18;;;;;;;4.93;3.20;;;22.80;29.30;;;;;;5025076;28;20033;-49
2022/03/15 04:46:44;;;;;;;4.40;3.30;;;22.80;29.30;;;;;;5024440;28;20033;-48
2022/03/15 04:49:10;;;;;;;4.65;3.22;;;22.80;29.30;;;;;;5039642;28;20064;-49
2022/03/15 04:51:36;;;;;;;4.07;3.03;;;22.80;29.40;;;;;;5043765;28;20037;-49
2022/03/15 04:54:02;;;;;;;4.50;3.33;;;22.80;29.30;;;;;;5043676;28;20503;-49
2022/03/15 04:56:28;;;;;;;4.90;3.22;;;22.80;29.30;;;;;;5043719;28;20033;-49
2022/03/15 04:58:54;;;;;;;4.80;3.30;;;22.70;29.40;;;;;;5044001;28;20036;-49
2022/03/15 05:01:20;;;;;;;4.50;3.10;;;22.70;29.30;;;;;;5033951;28;20033;-49
2022/03/15 05:03:46;;;;;;;4.65;3.20;;;22.70;29.40;;;;;;5033813;28;20060;-50
2022/03/15 05:06:11;;;;;;;5.15;3.40;;;22.70;29.30;;;;;;5032368;28;20030;-49
2022/03/15 05:08:37;;;;;;;4.85;3.85;;;22.70;29.40;;;;;;5043577;28;20052;-50
2022/03/15 05:11:06;;;;;;;4.53;3.28;;;22.70;29.40;;;;;;5037678;28;20020;-50
2022/03/15 05:13:46;;;;;;;5.40;3.60;;;22.70;29.40;;;;;;5044425;28;20025;-49
2022/03/15 05:16:21;;;;;;;4.22;3.22;;;22.70;29.50;;;;;;5038211;28;20029;-49
2022/03/15 05:18:51;;;;;;;5.70;3.47;;;22.70;29.40;;;;;;5043600;28;20610;-49
2022/03/15 05:21:17;;;;;;;4.82;3.38;;;22.70;29.50;;;;;;5043829;28;20060;-49
2022/03/15 05:23:48;;;;;;;4.78;3.38;;;22.70;29.60;;;;;;5037782;28;20036;-49
2022/03/15 05:26:15;;;;;;;5.53;3.67;;;22.70;29.60;;;;;;5023064;28;20029;-50
2022/03/15 05:28:42;;;;;;;4.68;3.40;;;22.70;29.70;;;;;;5024148;28;20107;-49
2022/03/15 05:31:08;;;;;;;4.95;3.50;;;22.80;29.70;;;;;;5023463;28;20022;-50
2022/03/15 05:33:34;;;;;;;4.20;2.70;;;22.80;29.70;;;;;;5024089;28;20025;-49
2022/03/15 05:36:01;;;;;;;4.63;3.08;;;22.90;29.80;;;;;;5023516;28;20112;-49
2022/03/15 05:38:27;;;;;;;4.47;3.00;;;22.90;29.80;;;;;;5024065;28;20053;-50
2022/03/15 05:40:53;;;;;;;4.18;2.83;;;22.90;29.80;;;;;;5025492;28;20088;-49
2022/03/15 05:43:19;;;;;;;4.50;3.15;;;23.00;29.70;;;;;;5040672;28;20798;-49
2022/03/15 05:45:46;;;;;;;4.03;2.70;;;23.10;29.70;;;;;;5042862;28;20021;-49
2022/03/15 05:48:12;;;;;;;4.13;2.90;;;23.10;29.70;;;;;;5041174;28;20021;-49
2022/03/15 05:50:38;;;;;;;4.40;3.00;;;23.20;29.60;;;;;;5042103;28;20044;-49
2022/03/15 05:53:05;;;;;;;4.07;2.55;;;23.30;29.60;;;;;;5042291;28;20320;-49
2022/03/15 05:55:34;;;;;;;4.50;3.13;;;23.40;29.50;;;;;;5041057;28;20143;-49
2022/03/15 05:58:01;;;;;;;8.65;4.30;;;23.40;29.40;;;;;;5041429;28;20041;-49
2022/03/15 06:00:28;;;;;;;14.98;6.32;;;23.50;29.40;;;;;;5039818;28;20032;-50
2022/03/15 06:02:55;;;;;;;19.30;8.32;;;23.50;29.50;;;;;;5039351;28;20033;-50
2022/03/15 06:05:21;;;;;;;16.13;8.02;;;23.60;29.40;;;;;;5039467;28;20032;-49
2022/03/15 06:07:48;;;;;;;14.00;6.65;;;23.70;29.40;;;;;;5041125;28;20029;-49
2022/03/15 06:10:17;;;;;;;17.00;7.40;;;23.70;29.30;;;;;;5041511;28;20531;-50
2022/03/15 06:12:44;;;;;;;14.25;7.28;;;23.80;29.10;;;;;;5041509;28;20021;-50
2022/03/15 06:15:10;;;;;;;12.65;7.03;;;23.90;29.10;;;;;;5043308;28;20009;-52
2022/03/15 06:18:03;;;;;;;13.25;6.32;;;24.00;29.30;;;;;;5044105;28;20028;-50
2022/03/15 06:20:29;;;;;;;11.25;5.75;;;24.00;30.00;;;;;;5044093;28;20041;-50
2022/03/15 06:22:55;;;;;;;11.18;6.22;;;24.00;29.90;;;;;;5045110;28;20113;-49
2022/03/15 06:25:21;;;;;;;9.70;5.88;;;24.10;30.00;;;;;;5045771;28;20551;-50
2022/03/15 06:27:47;;;;;;;9.63;5.63;;;24.10;29.90;;;;;;5045347;28;20086;-49
2022/03/15 06:30:16;;;;;;;9.02;5.30;;;24.20;29.90;;;;;;5044503;28;20135;-50
2022/03/15 06:32:42;;;;;;;12.38;6.07;;;24.20;29.80;;;;;;5027911;28;20030;-49
2022/03/15 06:35:10;;;;;;;11.93;7.03;;;24.20;29.70;;;;;;5032527;28;20026;-49
2022/03/15 06:37:39;;;;;;;13.13;6.72;;;24.30;29.70;;;;;;5039165;28;20084;-50
2022/03/15 06:40:07;;;;;;;9.02;5.43;;;24.40;29.70;;;;;;5043719;28;20017;-49
2022/03/15 06:42:32;;;;;;;9.35;5.03;;;24.40;29.60;;;;;;5042275;28;20515;-49
2022/03/15 06:44:58;;;;;;;8.10;5.20;;;24.40;29.50;;;;;;5042564;28;20060;-50
2022/03/15 06:47:24;;;;;;;8.82;5.32;;;24.50;29.50;;;;;;5043812;28;20025;-50
2022/03/15 06:49:50;;;;;;;8.43;5.85;;;24.50;29.30;;;;;;5043212;28;20035;-50
2022/03/15 06:52:16;;;;;;;10.27;5.80;;;24.60;29.20;;;;;;5044545;28;20087;-49
2022/03/15 06:54:42;;;;;;;7.15;5.25;;;24.60;29.20;;;;;;5045285;28;20029;-50
2022/03/15 06:57:07;;;;;;;7.45;5.07;;;24.60;29.10;;;;;;5045292;28;20155;-50
2022/03/15 06:59:34;;;;;;;10.48;5.63;;;24.70;29.20;;;;;;5044262;28;20047;-49
2022/03/15 07:02:00;;;;;;;7.25;5.10;;;24.70;29.20;;;;;;5044449;28;21023;-49
2022/03/15 07:04:26;;;;;;;8.23;4.95;;;24.70;29.20;;;;;;5041101;28;21365;-49
2022/03/15 07:06:51;;;;;;;8.70;5.75;;;24.80;29.20;;;;;;5044756;28;20025;-50
2022/03/15 07:09:17;;;;;;;8.38;5.43;;;24.80;29.10;;;;;;5043974;28;20082;-49
2022/03/15 07:11:43;;;;;;;7.45;5.22;;;24.80;29.00;;;;;;5042370;28;20060;-49
2022/03/15 07:14:09;;;;;;;8.02;5.60;;;24.80;29.00;;;;;;5042657;28;20056;-49
2022/03/15 07:16:35;;;;;;;8.43;5.78;;;24.90;29.00;;;;;;5030998;28;20047;-50
2022/03/15 07:19:00;;;;;;;8.23;4.90;;;24.90;28.90;;;;;;5042573;28;20167;-49
2022/03/15 07:21:26;;;;;;;7.80;5.10;;;24.90;29.00;;;;;;5042480;28;20055;-50
2022/03/15 07:23:52;;;;;;;8.55;5.45;;;24.90;28.80;;;;;;5043112;28;20052;-50
2022/03/15 07:26:18;;;;;;;7.43;5.35;;;25.00;28.70;;;;;;5042312;28;20033;-50
2022/03/15 07:28:43;;;;;;;8.82;5.97;;;25.00;28.70;;;;;;5045082;28;20239;-49
2022/03/15 07:31:09;;;;;;;8.23;5.28;;;25.00;28.70;;;;;;5044606;28;20419;-49
2022/03/15 07:33:35;;;;;;;7.78;5.25;;;25.00;28.60;;;;;;5044093;28;20051;-49
2022/03/15 07:36:01;;;;;;;7.35;5.28;;;25.00;28.50;;;;;;5043131;28;20127;-50
2022/03/15 07:38:28;;;;;;;7.15;5.30;;;25.00;28.50;;;;;;5043769;28;20025;-49
2022/03/15 07:40:54;;;;;;;7.38;5.20;;;25.00;28.30;;;;;;5044298;28;20060;-49
2022/03/15 07:43:23;;;;;;;7.75;5.95;;;25.00;28.20;;;;;;5045278;28;20020;-50
2022/03/15 07:45:49;;;;;;;7.70;4.60;;;25.10;28.20;;;;;;5045604;28;20699;-50
2022/03/15 07:48:16;;;;;;;7.32;5.60;;;25.10;28.10;;;;;;5045317;28;20048;-50
2022/03/15 07:50:42;;;;;;;5.78;4.43;;;25.20;28.20;;;;;;5045152;28;20033;-50
2022/03/15 07:53:08;;;;;;;6.85;4.50;;;25.20;28.10;;;;;;5036383;28;20397;-50
2022/03/15 07:55:34;;;;;;;7.80;5.00;;;25.20;28.10;;;;;;5025383;28;20033;-49
2022/03/15 07:58:00;;;;;;;6.47;4.53;;;25.20;28.10;;;;;;5025257;28;20119;-50
2022/03/15 08:00:26;;;;;;;7.82;4.80;;;25.20;28.10;;;;;;5023711;28;20040;-49
2022/03/15 08:02:52;;;;;;;7.45;4.90;;;25.20;28.40;;;;;;5030704;28;20029;-49
2022/03/15 08:05:19;;;;;;;7.63;4.82;;;25.20;28.60;;;;;;5031437;28;20037;-50
2022/03/15 08:07:45;;;;;;;7.10;4.75;;;25.20;28.70;;;;;;5024619;28;20041;-49
2022/03/15 08:10:11;;;;;;;6.28;4.60;;;25.30;28.70;;;;;;5028204;28;20029;-49
2022/03/15 08:12:40;;;;;;;6.95;4.22;;;25.30;28.60;;;;;;5039518;28;20032;-50
2022/03/15 08:15:08;;;;;;;8.07;4.72;;;25.30;28.60;;;;;;5043245;28;20056;-49
2022/03/15 08:17:35;;;;;;;8.25;5.25;;;25.30;28.60;;;;;;5023748;28;20045;-49
2022/03/15 08:20:00;;;;;;;5.72;4.22;;;25.30;28.60;;;;;;5024390;28;20048;-49
2022/03/15 08:22:29;;;;;;;6.10;4.53;;;25.40;28.50;;;;;;5024736;28;20041;-50
2022/03/15 08:24:55;;;;;;;5.60;4.45;;;25.30;28.50;;;;;;5024621;28;20028;-50
2022/03/15 08:27:21;;;;;;;7.00;4.28;;;25.40;28.50;;;;;;5023339;28;20750;-50
2022/03/15 08:29:47;;;;;;;5.25;4.00;;;25.40;28.40;;;;;;5023954;28;20103;-50
2022/03/15 08:32:12;;;;;;;6.00;4.60;;;25.30;28.40;;;;;;5024189;28;20037;-51
2022/03/15 08:34:39;;;;;;;6.35;4.22;;;25.40;29.00;;;;;;5030781;28;20109;-50
2022/03/15 08:37:05;;;;;;;6.03;4.30;;;25.40;28.30;;;;;;5023325;28;20653;-50
2022/03/15 08:39:31;;;;;;;5.90;4.47;;;25.40;29.00;;;;;;5027645;28;20037;-49
2022/03/15 08:41:57;;;;;;;7.30;4.70;;;25.30;28.30;;;;;;5023996;28;20036;-51
2022/03/15 08:44:23;;;;;;;6.57;4.60;;;25.40;28.30;;;;;;5024226;28;20440;-49
2022/03/15 08:46:50;;;;;;;5.45;4.30;;;25.40;28.30;;;;;;5024030;28;20022;-49
2022/03/15 08:49:17;;;;;;;5.70;3.95;;;25.40;28.30;;;;;;5024132;28;20030;-50
2022/03/15 08:51:44;;;;;;;5.65;3.85;;;25.40;28.30;;;;;;5024800;28;20025;-50
2022/03/15 08:54:10;;;;;;;5.55;4.13;;;25.40;28.20;;;;;;5024560;28;20539;-51
2022/03/15 08:56:41;;;;;;;7.25;4.30;;;25.40;28.20;;;;;;5024273;28;20120;-50
2022/03/15 08:59:12;;;;;;;5.25;3.85;;;25.40;28.20;;;;;;5027691;28;20033;-49
2022/03/15 09:01:39;;;;;;;5.10;3.67;;;25.40;28.20;;;;;;5043891;28;20676;-55
2022/03/15 09:04:05;;;;;;;9.75;4.07;;;25.40;28.20;;;;;;5037439;28;20052;-50
2022/03/15 09:06:31;;;;;;;6.63;4.30;;;25.40;28.10;;;;;;5034391;28;20120;-50
2022/03/15 09:08:59;;;;;;;4.82;4.05;;;25.40;28.10;;;;;;5023579;28;20026;-50
2022/03/15 09:11:25;;;;;;;5.05;3.80;;;25.40;28.10;;;;;;5040057;28;20028;-49
2022/03/15 09:13:52;;;;;;;5.75;4.35;;;25.40;28.00;;;;;;5043512;28;20040;-49
2022/03/15 09:16:17;;;;;;;5.05;3.70;;;25.40;28.10;;;;;;5042103;28;20055;-54
2022/03/15 09:18:43;;;;;;;6.07;3.78;;;25.40;28.00;;;;;;5036311;28;20029;-49
2022/03/15 09:21:09;;;;;;;6.70;4.13;;;25.40;28.00;;;;;;5023223;28;20034;-50
2022/03/15 09:23:35;;;;;;;5.53;3.55;;;25.40;28.00;;;;;;5040234;28;20500;-48
2022/03/15 09:26:01;;;;;;;5.40;3.72;;;25.40;28.00;;;;;;5035849;28;20033;-49
2022/03/15 09:28:26;;;;;;;5.68;3.88;;;25.40;27.90;;;;;;5023383;28;20121;-49
2022/03/15 09:30:52;;;;;;;6.50;4.72;;;25.40;27.90;;;;;;5023513;28;20773;-50
2022/03/15 09:33:19;;;;;;;5.53;4.00;;;25.40;27.90;;;;;;5025520;28;20018;-50
2022/03/15 09:35:45;;;;;;;5.20;3.97;;;25.40;27.90;;;;;;5026628;28;20417;-49
2022/03/15 09:38:11;;;;;;;5.45;4.03;;;25.40;27.90;;;;;;5023382;28;20029;-49
2022/03/15 09:40:38;;;;;;;5.45;4.00;;;25.40;27.90;;;;;;5023313;28;20038;-49
2022/03/15 09:43:06;;;;;;;5.05;3.90;;;25.40;27.90;;;;;;5034908;28;20094;-49
2022/03/15 09:45:35;;;;;;;5.10;3.78;;;25.40;27.90;;;;;;5043316;28;20025;-50
2022/03/15 09:48:05;;;;;;;4.82;3.75;;;25.40;27.90;;;;;;5041232;28;20033;-50
2022/03/15 09:50:31;;;;;;;5.90;4.20;;;25.40;27.90;;;;;;5045948;28;20033;-50
2022/03/15 09:52:59;;;;;;;5.82;4.30;;;25.40;27.90;;;;;;5046986;28;20033;-49
2022/03/15 09:55:25;;;;;;;5.60;3.97;;;25.40;27.90;;;;;;5045636;28;20028;-51
2022/03/15 09:57:52;;;;;;;6.43;4.03;;;25.40;27.90;;;;;;5047280;28;20381;-50
2022/03/15 10:00:19;;;;;;;7.15;3.58;;;25.40;27.90;;;;;;5046542;28;20053;-49
2022/03/15 10:02:45;;;;;;;5.00;3.80;;;25.40;27.90;;;;;;5047114;28;20512;-49
2022/03/15 10:05:12;;;;;;;5.45;4.07;;;25.40;27.90;;;;;;5031886;28;20099;-50
2022/03/15 10:07:38;;;;;;;5.55;3.72;;;25.40;27.90;;;;;;5026590;28;20769;-50
2022/03/15 10:10:06;;;;;;;6.10;4.20;;;25.40;27.90;;;;;;5042029;28;20044;-50
2022/03/15 10:12:33;;;;;;;5.07;3.63;;;25.40;27.90;;;;;;5047400;28;20032;-50
2022/03/15 10:15:16;;;;;;;5.15;3.40;;;25.40;27.80;;;;;;5045710;28;20078;-49
2022/03/15 10:17:53;;;;;;;5.75;3.83;;;25.40;27.90;;;;;;5047302;28;20032;-50
2022/03/15 10:20:21;;;;;;;7.00;3.72;;;25.40;27.80;;;;;;5046864;28;20642;-50
2022/03/15 10:22:56;;;;;;;4.95;3.35;;;25.40;27.90;;;;;;5046572;28;20033;-49
2022/03/15 10:25:22;;;;;;;6.80;4.30;;;25.40;27.80;;;;;;5047103;28;20052;-49
2022/03/15 10:27:53;;;;;;;6.18;3.72;;;25.40;28.20;;;;;;5046940;28;20441;-48
2022/03/15 10:30:19;;;;;;;5.88;4.20;;;25.40;27.80;;;;;;5046948;28;20021;-48
2022/03/15 10:32:47;;;;;;;5.78;3.75;;;25.40;27.80;;;;;;5047161;28;20021;-48
2022/03/15 10:35:18;;;;;;;4.65;3.15;;;25.40;27.90;;;;;;5032628;28;20057;-49
2022/03/15 10:37:43;;;;;;;4.97;3.78;;;25.40;27.90;;;;;;5027075;28;20041;-48
2022/03/15 10:40:10;;;;;;;5.18;3.30;;;25.40;27.80;;;;;;5027098;28;20033;-50
2022/03/15 10:42:41;;;;;;;5.28;3.67;;;25.40;27.80;;;;;;5027113;28;20030;-48
2022/03/15 10:45:21;;;;;;;5.38;3.13;;;25.40;27.80;;;;;;5026871;28;20108;-49
2022/03/15 10:47:52;;;;;;;5.57;3.92;;;25.40;27.80;;;;;;5027215;28;20025;-48
2022/03/15 10:50:18;;;;;;;5.63;3.55;;;25.40;27.80;;;;;;5043775;28;20595;-49
2022/03/15 10:52:45;;;;;;;5.30;3.70;;;25.40;27.70;;;;;;5046739;28;20037;-48
2022/03/15 10:55:13;;;;;;;4.88;3.55;;;25.40;27.60;;;;;;5047262;28;20526;-49
2022/03/15 10:58:12;;;;;;;5.05;3.30;;;25.40;27.60;;;;;;5046821;28;20028;-49
2022/03/15 11:00:40;;;;;;;4.90;3.60;;;25.40;27.60;;;;;;5045730;28;20113;-48
2022/03/15 11:03:16;;;;;;;5.03;3.42;;;25.40;27.60;;;;;;5046793;28;20032;-50
2022/03/15 11:05:42;;;;;;;4.70;3.58;;;25.40;27.60;;;;;;5026530;28;20037;-49
2022/03/15 11:08:17;;;;;;;5.28;3.65;;;25.40;27.60;;;;;;5025914;28;20486;-49
2022/03/15 11:10:48;;;;;;;4.20;3.15;;;25.40;27.60;;;;;;5035064;28;20508;-49
2022/03/15 11:13:16;;;;;;;4.30;3.10;;;25.40;28.30;;;;;;5025939;28;20025;-49
2022/03/15 11:15:48;;;;;;;4.78;3.53;;;25.40;27.60;;;;;;5038903;28;20021;-49
2022/03/15 11:18:16;;;;;;;5.07;3.22;;;25.40;27.70;;;;;;5045314;28;20443;-48
2022/03/15 11:20:44;;;;;;;4.35;3.20;;;25.40;27.60;;;;;;5043986;28;20321;-49
2022/03/15 11:23:14;;;;;;;4.43;3.22;;;25.40;27.70;;;;;;5045907;28;20364;-49
2022/03/15 11:25:45;;;;;;;4.93;3.40;;;25.40;27.70;;;;;;5046272;28;20052;-49
2022/03/15 11:28:22;;;;;;;4.80;3.30;;;25.40;27.70;;;;;;5030337;28;20087;-49
2022/03/15 11:30:51;;;;;;;4.22;3.17;;;25.40;27.70;;;;;;5025590;28;20017;-48
2022/03/15 11:33:17;;;;;;;4.95;3.72;;;25.40;27.60;;;;;;5025499;28;20096;-49
2022/03/15 11:35:42;;;;;;;4.97;3.15;;;25.40;27.60;;;;;;5024650;28;20018;-49
2022/03/15 11:38:12;;;;;;;5.20;3.88;;;25.40;27.60;;;;;;5025212;28;20512;-49
2022/03/15 11:40:38;;;;;;;6.07;3.38;;;25.40;27.60;;;;;;5025136;28;20036;-48
2022/03/15 11:43:42;;;;;;;5.53;3.30;;;25.40;27.60;;;;;;5029166;28;20036;-48
2022/03/15 11:46:19;;;;;;;5.35;3.40;;;25.40;27.80;;;;;;5040834;28;20033;-48
2022/03/15 11:48:48;;;;;;;4.93;3.08;;;25.40;27.90;;;;;;5039477;28;20029;-49
2022/03/15 11:51:34;;;;;;;5.88;3.17;;;25.40;27.90;;;;;;5025520;28;20029;-49
2022/03/15 11:54:26;;;;;;;4.53;3.00;;;25.40;28.00;;;;;;5025763;28;20029;-49
2022/03/15 11:57:03;;;;;;;3.63;2.50;;;25.40;28.00;;;;;;5025098;28;20137;-49
2022/03/15 11:59:48;;;;;;;4.80;3.20;;;25.40;27.90;;;;;;5024869;28;20025;-49
2022/03/15 12:02:25;;;;;;;3.92;2.90;;;25.40;27.90;;;;;;5024603;28;20056;-48
2022/03/15 12:04:51;;;;;;;4.35;3.10;;;25.40;28.00;;;;;;5026253;28;20029;-48
2022/03/15 12:07:36;;;;;;;4.40;3.05;;;25.40;28.00;;;;;;5024756;28;20041;-48
2022/03/15 12:10:09;;;;;;;5.30;3.33;;;25.40;28.00;;;;;;5024498;28;20425;-48
2022/03/15 12:12:39;;;;;;;4.93;3.30;;;25.40;28.00;;;;;;5023861;28;20022;-49
2022/03/15 12:15:14;;;;;;;4.45;3.00;;;25.40;28.00;;;;;;5024713;28;20036;-49
2022/03/15 12:17:40;;;;;;;4.35;3.10;;;25.40;28.00;;;;;;5024124;28;20036;-48
2022/03/15 12:20:14;;;;;;;4.72;3.42;;;25.40;27.90;;;;;;5037352;28;20389;-49
2022/03/15 12:22:42;;;;;;;4.47;3.00;;;25.40;27.90;;;;;;5044632;28;20041;-49
2022/03/15 12:25:13;;;;;;;4.30;2.92;;;25.40;28.00;;;;;;5044463;28;20096;-49
2022/03/15 12:27:41;;;;;;;4.50;3.50;;;25.40;28.10;;;;;;5044511;28;20059;-49
2022/03/15 12:30:08;;;;;;;4.38;3.13;;;25.40;28.10;;;;;;5044177;28;20040;-49
2022/03/15 12:32:34;;;;;;;4.13;3.40;;;25.40;28.00;;;;;;5034738;28;20056;-48
2022/03/15 12:35:00;;;;;;;5.18;3.33;;;25.50;28.10;;;;;;5025113;28;20029;-50
2022/03/15 12:37:37;;;;;;;4.45;3.00;;;25.40;28.10;;;;;;5022689;28;20108;-49
2022/03/15 12:40:06;;;;;;;4.43;3.13;;;25.50;28.00;;;;;;5022464;28;20033;-48
2022/03/15 12:42:32;;;;;;;4.25;2.95;;;25.50;28.00;;;;;;5023258;28;20048;-49
2022/03/15 12:45:11;;;;;;;4.00;2.78;;;25.40;28.00;;;;;;5023464;28;20580;-49
2022/03/15 12:47:47;;;;;;;4.13;2.40;;;25.40;28.00;;;;;;5024289;28;20441;-49